createdAt,value
2022-11-13T00:01:09.077Z,102237.91
2022-11-13T00:11:29.561Z,102241.80
2022-11-13T00:21:49.804Z,102232.74
2022-11-13T00:32:10.480Z,102232.70
2022-11-13T00:42:31.460Z,102228.17
2022-11-13T00:52:51.598Z,102215.88
2022-11-13T01:03:13.174Z,102217.20
2022-11-13T01:13:34.657Z,102210.63
2022-11-13T01:23:56.422Z,102198.46
2022-11-13T01:34:16.859Z,102202.98
2022-11-13T01:44:46.984Z,102204.19
2022-11-13T01:55:17.837Z,102201.63
2022-11-13T02:05:38.417Z,102195.48
2022-11-13T02:16:00.108Z,102187.67
2022-11-13T02:26:22.827Z,102186.06
2022-11-13T02:36:43.476Z,102183.23
2022-11-13T02:47:04.160Z,102181.00
2022-11-13T02:57:24.757Z,102178.77
2022-11-13T03:07:45.227Z,102177.78
2022-11-13T03:18:06.908Z,102174.65
2022-11-13T03:28:27.651Z,102172.73
2022-11-13T03:38:48.536Z,102176.52
2022-11-13T03:49:09.743Z,102185.76
2022-11-13T03:59:30.129Z,102186.95
2022-11-13T04:09:50.665Z,102182.08
2022-11-13T04:20:11.868Z,102184.70
2022-11-13T04:30:32.176Z,102189.67
2022-11-13T04:41:12.451Z,102186.85
2022-11-13T04:51:33.093Z,102185.38
2022-11-13T05:01:55.699Z,102184.50
2022-11-13T05:12:16.038Z,102184.88
2022-11-13T05:22:36.549Z,102192.44
2022-11-13T05:32:57.185Z,102204.84
2022-11-13T05:43:17.854Z,102211.73
2022-11-13T05:53:39.092Z,102214.73
2022-11-13T06:04:01.417Z,102217.71
2022-11-13T06:14:22.171Z,102217.08
2022-11-13T06:24:42.938Z,102221.04
2022-11-13T06:35:03.617Z,102227.85
2022-11-13T06:45:24.009Z,102230.54
2022-11-13T06:55:47.457Z,102239.13
2022-11-13T07:06:14.115Z,102235.86
2022-11-13T07:16:56.293Z,102229.23
2022-11-13T07:27:16.025Z,102226.55
2022-11-13T07:37:37.232Z,102223.16
2022-11-13T07:48:01.964Z,102225.80
2022-11-13T07:58:22.515Z,102212.89
2022-11-13T08:08:43.195Z,102215.39
2022-11-13T08:19:04.520Z,102222.63
2022-11-13T08:29:25.478Z,102216.89
2022-11-13T08:39:45.894Z,102220.39
2022-11-13T08:50:07.170Z,102220.74
2022-11-13T09:00:30.161Z,102220.44
2022-11-13T09:10:50.641Z,102213.23
2022-11-13T09:21:11.288Z,102218.67
2022-11-13T09:31:31.908Z,102221.94
2022-11-13T09:42:12.932Z,102210.33
2022-11-13T09:52:38.265Z,102195.35
2022-11-13T10:03:59.289Z,102186.36
2022-11-13T10:14:23.751Z,102185.17
2022-11-13T10:24:45.957Z,102174.77
2022-11-13T10:35:06.422Z,102166.16
2022-11-13T10:45:27.331Z,102160.83
2022-11-13T10:55:51.898Z,102155.94
2022-11-13T11:06:12.607Z,102158.59
2022-11-13T11:16:33.282Z,102158.70
2022-11-13T11:26:59.507Z,102150.84
2022-11-13T11:37:23.909Z,102138.63
2022-11-13T11:47:47.436Z,102137.16
2022-11-13T11:58:43.526Z,102131.11
2022-11-13T12:09:15.518Z,102124.02
2022-11-13T12:19:59.421Z,102125.13
2022-11-13T12:30:24.664Z,102121.06
2022-11-13T12:40:51.604Z,102107.89
2022-11-13T12:51:20.801Z,102099.88
2022-11-13T13:02:11.993Z,102096.13
2022-11-13T13:12:52.087Z,102096.20
2022-11-13T13:23:16.049Z,102090.55
2022-11-13T13:33:57.939Z,102089.05
2022-11-13T13:44:37.996Z,102084.79
2022-11-13T13:55:01.822Z,102074.42
2022-11-13T14:05:27.748Z,102063.27
2022-11-13T14:15:48.745Z,102062.86
2022-11-13T14:26:13.646Z,102057.05
2022-11-13T14:36:34.841Z,102053.36
2022-11-13T14:47:05.856Z,102057.16
2022-11-13T14:57:26.168Z,102054.67
2022-11-13T15:07:47.083Z,102054.93
2022-11-13T15:18:14.599Z,102041.85
2022-11-13T15:28:36.261Z,102041.55
2022-11-13T15:38:57.034Z,102033.99
2022-11-13T15:49:17.594Z,102032.02
2022-11-13T15:59:39.144Z,102035.36
2022-11-13T16:10:00.750Z,102034.23
2022-11-13T16:20:23.161Z,102036.97
2022-11-13T16:30:45.456Z,102033.36
2022-11-13T16:41:06.192Z,102034.67
2022-11-13T16:51:28.228Z,102040.85
2022-11-13T17:01:48.930Z,102046.63
2022-11-13T17:12:11.917Z,102050.20
2022-11-13T17:22:32.558Z,102049.52
2022-11-13T17:32:53.546Z,102045.61
2022-11-13T17:43:14.303Z,102046.65
2022-11-13T17:53:35.263Z,102039.20
2022-11-13T18:03:57.774Z,102032.17
2022-11-13T18:14:20.638Z,102022.63
2022-11-13T18:24:41.862Z,102016.45
2022-11-13T18:35:02.979Z,102011.23
2022-11-13T18:45:23.782Z,102006.80
2022-11-13T18:55:45.014Z,102002.46
2022-11-13T19:06:07.974Z,101994.59
2022-11-13T19:16:33.492Z,102001.73
2022-11-13T19:26:54.552Z,102003.94
2022-11-13T19:37:19.071Z,102015.36
2022-11-13T19:47:40.077Z,102010.89
2022-11-13T19:58:02.054Z,102005.42
2022-11-13T20:08:26.869Z,102010.35
2022-11-13T20:18:48.673Z,102021.86
2022-11-13T20:29:09.587Z,102016.05
2022-11-13T20:39:31.229Z,102015.46
2022-11-13T20:49:52.033Z,102012.52
2022-11-13T21:00:13.344Z,102013.30
2022-11-13T21:10:34.375Z,102011.44
2022-11-13T21:20:55.131Z,102015.90
2022-11-13T21:31:22.609Z,102015.14
2022-11-13T21:41:48.295Z,102009.08
2022-11-13T21:52:13.639Z,102005.08
2022-11-13T22:02:48.679Z,102000.92
2022-11-13T22:13:14.212Z,101999.30
2022-11-13T22:23:38.847Z,102002.85
2022-11-13T22:34:03.335Z,102000.23
2022-11-13T22:44:35.205Z,101997.41
2022-11-13T22:55:09.774Z,101987.31
2022-11-13T23:05:36.889Z,101978.90
2022-11-13T23:16:04.149Z,101977.15
2022-11-13T23:26:27.960Z,101965.39
2022-11-13T23:36:48.609Z,101953.82
2022-11-13T23:47:12.718Z,101946.86
2022-11-13T23:57:33.980Z,101942.63
